createdAt,value
2022-10-02T00:00:36.007Z,7.88
2022-10-02T00:03:10.691Z,5.75
2022-10-02T00:05:42.939Z,6.65
2022-10-02T00:08:18.142Z,6.10
2022-10-02T00:10:52.257Z,6.50
2022-10-02T00:13:23.304Z,6.55
2022-10-02T00:15:52.164Z,9.07
2022-10-02T00:18:23.530Z,10.40
2022-10-02T00:21:08.311Z,9.30
2022-10-02T00:23:40.467Z,11.82
2022-10-02T00:26:14.402Z,7.97
2022-10-02T00:28:46.831Z,7.53
2022-10-02T00:31:33.434Z,11.25
2022-10-02T00:34:10.008Z,7.88
2022-10-02T00:36:47.881Z,8.30
2022-10-02T00:39:25.385Z,10.07
2022-10-02T00:42:31.905Z,14.60
2022-10-02T00:45:30.474Z,10.40
2022-10-02T00:48:06.451Z,10.85
2022-10-02T00:50:42.207Z,9.75
2022-10-02T00:53:25.220Z,16.35
2022-10-02T00:56:03.061Z,13.95
2022-10-02T00:58:48.519Z,14.07
2022-10-02T01:01:19.157Z,13.93
2022-10-02T01:03:49.534Z,15.05
2022-10-02T01:06:16.285Z,11.52
2022-10-02T01:08:43.120Z,17.13
2022-10-02T01:11:12.313Z,22.10
2022-10-02T01:13:39.603Z,16.98
2022-10-02T01:16:11.998Z,14.45
2022-10-02T01:18:40.189Z,19.15
2022-10-02T01:21:14.579Z,19.58
2022-10-02T01:23:49.863Z,16.95
2022-10-02T01:26:18.326Z,20.00
2022-10-02T01:28:45.807Z,26.75
2022-10-02T01:31:13.540Z,20.35
2022-10-02T01:33:41.819Z,21.50
2022-10-02T01:36:09.901Z,18.35
2022-10-02T01:38:37.864Z,28.05
2022-10-02T01:41:04.687Z,22.10
2022-10-02T01:43:35.491Z,15.88
2022-10-02T01:46:18.622Z,22.98
2022-10-02T01:48:49.079Z,17.73
2022-10-02T01:51:34.623Z,18.10
2022-10-02T01:54:15.898Z,27.33
2022-10-02T01:56:50.896Z,22.38
2022-10-02T01:59:27.729Z,15.70
2022-10-02T02:02:07.215Z,20.05
2022-10-02T02:04:42.374Z,17.65
2022-10-02T02:07:14.295Z,15.77
2022-10-02T02:09:46.175Z,17.85
2022-10-02T02:12:16.313Z,21.25
2022-10-02T02:14:48.377Z,15.13
2022-10-02T02:17:20.299Z,20.10
2022-10-02T02:19:52.186Z,14.77
2022-10-02T02:22:22.212Z,15.60
2022-10-02T02:24:53.308Z,14.85
2022-10-02T02:27:24.561Z,20.40
2022-10-02T02:29:58.423Z,19.65
2022-10-02T02:32:29.227Z,18.20
2022-10-02T02:35:00.647Z,17.75
2022-10-02T02:37:31.833Z,21.75
2022-10-02T02:40:03.639Z,23.08
2022-10-02T02:42:33.612Z,17.73
2022-10-02T02:45:06.545Z,21.88
2022-10-02T02:47:39.081Z,15.00
2022-10-02T02:50:11.982Z,22.45
2022-10-02T02:52:44.651Z,24.48
2022-10-02T02:55:16.135Z,22.88
2022-10-02T02:57:48.447Z,27.75
2022-10-02T03:00:18.223Z,21.20
2022-10-02T03:02:44.955Z,22.55
2022-10-02T03:05:13.927Z,22.20
2022-10-02T03:07:48.846Z,16.58
2022-10-02T03:10:19.821Z,16.98
2022-10-02T03:12:59.211Z,21.05
2022-10-02T03:15:30.036Z,17.70
2022-10-02T03:18:19.557Z,14.88
2022-10-02T03:23:27.212Z,16.30
2022-10-02T03:26:00.703Z,15.93
2022-10-02T03:28:54.383Z,17.05
2022-10-02T03:31:24.413Z,16.13
2022-10-02T03:33:52.571Z,21.13
2022-10-02T03:36:19.663Z,15.25
2022-10-02T03:38:53.415Z,28.08
2022-10-02T03:41:28.247Z,25.10
2022-10-02T03:43:55.099Z,17.00
2022-10-02T03:46:23.369Z,20.00
2022-10-02T03:51:17.302Z,25.02
2022-10-02T03:53:44.194Z,34.10
2022-10-02T03:56:22.050Z,22.95
2022-10-02T03:58:52.635Z,30.15
2022-10-02T04:01:28.061Z,32.90
2022-10-02T04:04:01.451Z,22.10
2022-10-02T04:06:39.410Z,32.30
2022-10-02T04:09:12.345Z,33.53
2022-10-02T04:11:43.774Z,28.50
2022-10-02T04:14:16.203Z,22.50
2022-10-02T04:16:51.831Z,30.23
2022-10-02T04:19:22.968Z,27.33
2022-10-02T04:21:56.172Z,25.42
2022-10-02T04:24:30.386Z,27.70
2022-10-02T04:27:04.461Z,23.77
2022-10-02T04:29:39.888Z,21.40
2022-10-02T04:32:12.991Z,26.33
2022-10-02T04:34:41.112Z,18.52
2022-10-02T04:37:31.390Z,21.50
2022-10-02T04:40:11.756Z,27.15
2022-10-02T04:42:52.476Z,28.40
2022-10-02T04:45:34.859Z,27.88
2022-10-02T04:48:30.395Z,22.27
2022-10-02T04:51:05.745Z,17.42
2022-10-02T04:53:44.047Z,26.88
2022-10-02T04:59:05.671Z,20.88
2022-10-02T05:01:49.656Z,22.48
2022-10-02T05:04:33.879Z,26.80
2022-10-02T05:07:20.144Z,24.30
2022-10-02T05:09:58.656Z,23.27
2022-10-02T05:12:39.035Z,22.83
2022-10-02T05:15:22.591Z,20.75
2022-10-02T05:18:15.811Z,15.38
2022-10-02T05:21:06.338Z,20.50
2022-10-02T05:23:49.851Z,25.73
2022-10-02T05:26:48.928Z,18.10
2022-10-02T05:29:31.486Z,19.20
2022-10-02T05:32:16.627Z,13.88
2022-10-02T05:34:58.837Z,18.27
2022-10-02T05:37:44.784Z,28.05
2022-10-02T05:40:20.034Z,13.15
2022-10-02T05:42:55.519Z,11.73
2022-10-02T05:45:27.129Z,23.38
2022-10-02T05:48:01.321Z,20.85
2022-10-02T05:50:33.426Z,18.55
2022-10-02T05:53:07.584Z,21.33
2022-10-02T05:55:39.273Z,18.48
2022-10-02T05:58:10.738Z,19.27
2022-10-02T06:00:41.575Z,21.25
2022-10-02T06:03:16.617Z,21.33
2022-10-02T06:05:48.940Z,15.23
2022-10-02T06:08:22.317Z,16.17
2022-10-02T06:10:54.015Z,14.00
2022-10-02T06:13:25.619Z,16.65
2022-10-02T06:16:02.761Z,19.85
2022-10-02T06:18:32.974Z,17.95
2022-10-02T06:21:05.735Z,18.50
2022-10-02T06:23:37.359Z,17.48
2022-10-02T06:26:10.052Z,14.20
2022-10-02T06:28:41.270Z,21.73
2022-10-02T06:31:13.795Z,11.77
2022-10-02T06:33:40.632Z,17.25
2022-10-02T06:36:28.274Z,17.17
2022-10-02T06:39:14.058Z,12.52
2022-10-02T06:41:50.478Z,8.70
2022-10-02T06:44:22.577Z,14.00
2022-10-02T06:47:01.606Z,21.27
2022-10-02T06:49:38.787Z,12.60
2022-10-02T06:52:19.530Z,17.90
2022-10-02T06:55:04.932Z,15.40
2022-10-02T06:57:48.349Z,13.98
2022-10-02T07:00:18.326Z,13.68
2022-10-02T07:03:11.811Z,11.63
2022-10-02T07:05:53.869Z,14.00
2022-10-02T07:08:33.011Z,14.77
2022-10-02T07:11:09.939Z,18.98
2022-10-02T07:13:46.733Z,13.85
2022-10-02T07:16:26.527Z,11.27
2022-10-02T07:19:10.279Z,16.23
2022-10-02T07:21:44.667Z,10.57
2022-10-02T07:24:28.042Z,16.45
2022-10-02T07:27:04.157Z,14.73
2022-10-02T07:29:44.915Z,17.05
2022-10-02T07:32:35.299Z,16.98
2022-10-02T07:35:17.348Z,14.55
2022-10-02T07:37:53.624Z,11.00
2022-10-02T07:40:32.055Z,17.30
2022-10-02T07:43:16.806Z,17.63
2022-10-02T07:45:50.091Z,11.40
2022-10-02T07:48:32.707Z,19.00
2022-10-02T07:51:07.476Z,15.23
2022-10-02T07:53:39.979Z,16.42
2022-10-02T07:56:10.853Z,20.05
2022-10-02T07:58:43.704Z,16.38
2022-10-02T08:01:13.935Z,9.77
2022-10-02T08:03:46.467Z,14.13
2022-10-02T08:06:15.638Z,16.17
2022-10-02T08:08:49.035Z,10.88
2022-10-02T08:11:19.895Z,17.77
2022-10-02T08:13:53.643Z,17.50
2022-10-02T08:16:24.711Z,9.68
2022-10-02T08:18:56.874Z,10.38
2022-10-02T08:21:25.960Z,17.80
2022-10-02T08:23:58.476Z,15.48
2022-10-02T08:26:35.302Z,13.52
2022-10-02T08:29:08.004Z,13.15
2022-10-02T08:31:35.582Z,11.10
2022-10-02T08:34:12.402Z,12.98
2022-10-02T08:37:13.684Z,14.20
2022-10-02T08:40:13.001Z,17.70
2022-10-02T08:43:05.887Z,14.50
2022-10-02T08:45:56.874Z,11.18
2022-10-02T08:48:54.146Z,8.70
2022-10-02T08:51:51.634Z,10.60
2022-10-02T08:54:55.487Z,13.75
2022-10-02T08:58:02.590Z,12.80
2022-10-02T09:00:40.106Z,15.63
2022-10-02T09:03:36.658Z,12.70
2022-10-02T09:06:45.827Z,15.02
2022-10-02T09:12:35.129Z,10.45
2022-10-02T09:15:16.199Z,9.45
2022-10-02T09:17:57.109Z,13.10
2022-10-02T09:21:02.366Z,10.85
2022-10-02T09:24:13.119Z,9.73
2022-10-02T09:27:07.302Z,11.82
2022-10-02T09:30:15.600Z,8.65
2022-10-02T09:33:13.813Z,11.25
2022-10-02T09:36:02.447Z,15.55
2022-10-02T09:39:03.622Z,11.02
2022-10-02T09:42:03.575Z,12.00
2022-10-02T09:45:05.585Z,12.20
2022-10-02T09:48:11.719Z,13.75
2022-10-02T09:51:11.135Z,9.32
2022-10-02T09:54:00.815Z,10.23
2022-10-02T09:57:02.591Z,14.95
2022-10-02T09:59:51.301Z,13.13
2022-10-02T10:02:57.884Z,8.60
2022-10-02T10:05:42.571Z,14.50
2022-10-02T10:08:57.070Z,12.45
2022-10-02T10:12:02.187Z,10.85
2022-10-02T10:14:58.692Z,9.45
2022-10-02T10:18:01.539Z,9.30
2022-10-02T10:20:50.437Z,13.57
2022-10-02T10:23:45.726Z,13.57
2022-10-02T10:26:45.870Z,10.93
2022-10-02T10:29:52.823Z,10.95
2022-10-02T10:32:46.223Z,8.75
2022-10-02T10:35:36.506Z,12.32
2022-10-02T10:38:36.329Z,9.75
2022-10-02T10:41:19.054Z,10.38
2022-10-02T10:44:14.870Z,8.45
2022-10-02T10:47:02.001Z,5.85
2022-10-02T10:50:10.325Z,14.85
2022-10-02T10:53:24.827Z,12.95
2022-10-02T10:56:14.225Z,12.73
2022-10-02T10:59:04.308Z,11.43
2022-10-02T11:01:40.350Z,8.77
2022-10-02T11:04:33.210Z,13.82
2022-10-02T11:07:30.412Z,10.52
2022-10-02T11:10:30.659Z,8.15
2022-10-02T11:13:07.921Z,8.32
2022-10-02T11:16:09.107Z,5.93
2022-10-02T11:19:05.848Z,10.32
2022-10-02T11:21:51.632Z,13.40
2022-10-02T11:24:42.246Z,8.73
2022-10-02T11:27:32.568Z,7.22
2022-10-02T11:30:11.272Z,12.55
2022-10-02T11:33:03.988Z,7.10
2022-10-02T11:35:42.901Z,8.27
2022-10-02T11:38:32.126Z,7.82
2022-10-02T11:43:55.484Z,9.32
2022-10-02T11:46:45.493Z,7.32
2022-10-02T11:49:41.067Z,9.95
2022-10-02T11:52:34.286Z,10.48
2022-10-02T11:55:22.112Z,9.68
2022-10-02T11:58:00.216Z,10.73
2022-10-02T12:03:19.562Z,8.25
2022-10-02T12:05:56.756Z,7.07
2022-10-02T12:08:36.670Z,9.30
2022-10-02T12:11:10.313Z,8.65
2022-10-02T12:14:04.960Z,5.15
2022-10-02T12:16:54.450Z,7.90
2022-10-02T12:19:39.572Z,6.32
2022-10-02T12:22:16.261Z,7.57
2022-10-02T12:24:56.447Z,10.48
2022-10-02T12:27:38.932Z,9.95
2022-10-02T12:30:10.860Z,7.78
2022-10-02T12:33:10.241Z,7.40
2022-10-02T12:35:55.878Z,6.13
2022-10-02T12:38:32.899Z,8.70
2022-10-02T12:41:07.851Z,7.95
2022-10-02T12:44:08.006Z,7.15
2022-10-02T12:47:06.523Z,8.32
2022-10-02T12:49:45.246Z,11.63
2022-10-02T12:52:43.149Z,6.45
2022-10-02T12:58:11.127Z,9.15
2022-10-02T13:01:06.299Z,8.85
2022-10-02T13:03:57.258Z,10.55
2022-10-02T13:07:00.682Z,6.97
2022-10-02T13:09:42.715Z,6.72
2022-10-02T13:12:20.687Z,12.48
2022-10-02T13:15:15.716Z,11.32
2022-10-02T13:17:50.050Z,7.80
2022-10-02T13:20:25.939Z,6.00
2022-10-02T13:23:06.791Z,7.63
2022-10-02T13:25:52.091Z,13.38
2022-10-02T13:28:46.306Z,8.50
2022-10-02T13:31:26.007Z,8.13
2022-10-02T13:34:11.579Z,8.18
2022-10-02T13:36:52.342Z,9.10
2022-10-02T13:39:39.873Z,6.80
2022-10-02T13:42:18.659Z,10.73
2022-10-02T13:44:56.058Z,7.20
2022-10-02T13:47:43.236Z,3.83
2022-10-02T13:50:47.403Z,10.32
2022-10-02T13:53:34.930Z,4.35
2022-10-02T13:56:14.764Z,6.28
2022-10-02T13:59:00.802Z,7.50
2022-10-02T14:01:40.878Z,7.57
2022-10-02T14:04:25.824Z,7.63
2022-10-02T14:07:01.466Z,7.53
2022-10-02T14:09:45.019Z,8.40
2022-10-02T14:12:25.946Z,6.63
2022-10-02T14:15:16.498Z,8.60
2022-10-02T14:17:58.230Z,5.95
2022-10-02T14:20:37.531Z,6.13
2022-10-02T14:23:20.379Z,8.18
2022-10-02T14:25:58.755Z,11.38
2022-10-02T14:28:45.687Z,10.43
2022-10-02T14:31:42.790Z,4.07
2022-10-02T14:34:26.315Z,9.35
2022-10-02T14:37:01.170Z,7.38
2022-10-02T14:39:34.583Z,9.05
2022-10-02T14:42:24.672Z,6.57
2022-10-02T14:45:19.423Z,7.25
2022-10-02T14:47:59.847Z,6.85
2022-10-02T14:50:40.552Z,4.97
2022-10-02T14:53:47.170Z,7.65
2022-10-02T14:56:34.035Z,8.05
2022-10-02T14:59:16.140Z,7.22
2022-10-02T15:01:52.999Z,6.85
2022-10-02T15:04:38.624Z,6.80
2022-10-02T15:07:09.249Z,9.18
2022-10-02T15:09:46.800Z,9.07
2022-10-02T15:12:18.653Z,7.45
2022-10-02T15:15:07.486Z,10.07
2022-10-02T15:17:46.498Z,8.48
2022-10-02T15:20:23.447Z,7.88
2022-10-02T15:22:57.285Z,7.03
2022-10-02T15:25:43.350Z,6.38
2022-10-02T15:28:35.711Z,8.60
2022-10-02T15:31:14.890Z,9.32
2022-10-02T15:33:53.281Z,5.43
2022-10-02T15:36:48.904Z,9.43
2022-10-02T15:39:28.590Z,9.30
2022-10-02T15:42:04.708Z,8.10
2022-10-02T15:44:55.153Z,7.30
2022-10-02T15:47:34.188Z,7.68
2022-10-02T15:50:16.952Z,7.80
2022-10-02T15:52:54.039Z,10.88
2022-10-02T15:55:29.809Z,8.23
2022-10-02T15:58:18.006Z,8.30
2022-10-02T16:01:06.718Z,10.40
2022-10-02T16:03:42.582Z,8.60
2022-10-02T16:06:18.790Z,8.30
2022-10-02T16:09:10.244Z,9.05
2022-10-02T16:11:48.533Z,10.23
2022-10-02T16:14:22.069Z,9.55
2022-10-02T16:17:17.998Z,5.35
2022-10-02T16:20:05.140Z,8.88
2022-10-02T16:22:48.691Z,8.45
2022-10-02T16:25:29.946Z,9.60
2022-10-02T16:28:09.420Z,12.27
2022-10-02T16:30:59.617Z,6.57
2022-10-02T16:33:31.751Z,11.95
2022-10-02T16:36:22.803Z,14.55
2022-10-02T16:38:55.679Z,9.18
2022-10-02T16:41:48.102Z,7.03
2022-10-02T16:44:34.295Z,7.28
2022-10-02T16:47:08.938Z,6.80
2022-10-02T16:49:49.815Z,10.20
2022-10-02T16:52:22.184Z,9.27
2022-10-02T16:54:55.062Z,5.72
2022-10-02T16:57:26.835Z,7.53
2022-10-02T17:00:02.444Z,13.18
2022-10-02T17:02:38.348Z,13.25
2022-10-02T17:05:16.047Z,10.18
2022-10-02T17:07:53.214Z,7.10
2022-10-02T17:10:37.527Z,11.00
2022-10-02T17:13:16.628Z,9.77
2022-10-02T17:15:49.567Z,11.48
2022-10-02T17:18:26.873Z,6.65
2022-10-02T17:20:56.580Z,12.65
2022-10-02T17:23:30.846Z,7.35
2022-10-02T17:26:05.671Z,12.77
2022-10-02T17:28:39.536Z,10.50
2022-10-02T17:31:28.561Z,9.90
2022-10-02T17:33:57.792Z,9.25
2022-10-02T17:36:34.697Z,11.52
2022-10-02T17:39:21.584Z,9.85
2022-10-02T17:41:57.726Z,11.55
2022-10-02T17:44:31.853Z,10.75
2022-10-02T17:47:24.899Z,8.73
2022-10-02T17:50:06.827Z,8.98
2022-10-02T17:52:39.717Z,12.45
2022-10-02T17:55:25.853Z,11.02
2022-10-02T17:58:05.885Z,8.07
2022-10-02T18:00:38.215Z,9.07
2022-10-02T18:03:24.241Z,12.35
2022-10-02T18:05:57.948Z,11.70
2022-10-02T18:08:45.656Z,9.27
2022-10-02T18:11:30.553Z,12.02
2022-10-02T18:14:10.588Z,10.13
2022-10-02T18:16:48.449Z,7.85
2022-10-02T18:19:25.330Z,15.18
2022-10-02T18:22:03.324Z,6.90
2022-10-02T18:25:00.350Z,9.90
2022-10-02T18:27:45.911Z,12.98
2022-10-02T18:30:18.528Z,10.55
2022-10-02T18:33:13.727Z,11.57
2022-10-02T18:35:53.551Z,5.68
2022-10-02T18:38:29.671Z,11.57
2022-10-02T18:41:07.787Z,10.48
2022-10-02T18:44:02.552Z,14.30
2022-10-02T18:46:39.306Z,10.48
2022-10-02T18:49:33.529Z,10.15
2022-10-02T18:52:35.532Z,9.82
2022-10-02T18:55:23.308Z,9.50
2022-10-02T18:58:03.015Z,10.95
2022-10-02T19:00:51.646Z,10.35
2022-10-02T19:03:31.258Z,13.55
2022-10-02T19:08:50.947Z,9.00
2022-10-02T19:11:18.600Z,10.55
2022-10-02T19:13:48.402Z,7.78
2022-10-02T19:16:18.345Z,10.23
2022-10-02T19:18:46.527Z,9.98
2022-10-02T19:21:15.767Z,11.05
2022-10-02T19:23:51.077Z,12.82
2022-10-02T19:26:22.783Z,11.75
2022-10-02T19:28:51.995Z,8.15
2022-10-02T19:31:22.597Z,8.52
2022-10-02T19:33:55.618Z,10.68
2022-10-02T19:36:26.080Z,10.05
2022-10-02T19:38:56.763Z,10.35
2022-10-02T19:41:25.510Z,8.40
2022-10-02T19:43:56.874Z,10.40
2022-10-02T19:46:35.474Z,11.85
2022-10-02T19:49:05.455Z,8.10
2022-10-02T19:51:43.135Z,14.80
2022-10-02T19:54:14.388Z,10.48
2022-10-02T19:56:43.764Z,9.20
2022-10-02T19:59:16.887Z,14.50
2022-10-02T20:01:50.253Z,14.48
2022-10-02T20:04:20.502Z,12.15
2022-10-02T20:06:51.115Z,13.27
2022-10-02T20:09:23.566Z,10.45
2022-10-02T20:11:53.241Z,15.18
2022-10-02T20:16:48.634Z,9.45
2022-10-02T20:19:19.735Z,14.68
2022-10-02T20:21:51.001Z,11.30
2022-10-02T20:24:23.951Z,11.68
2022-10-02T20:26:53.595Z,16.08
2022-10-02T20:29:26.375Z,11.38
2022-10-02T20:31:58.504Z,7.70
2022-10-02T20:34:33.769Z,12.98
2022-10-02T20:37:04.959Z,11.80
2022-10-02T20:39:37.958Z,14.07
2022-10-02T20:42:11.857Z,12.23
2022-10-02T20:44:39.655Z,12.50
2022-10-02T20:47:48.713Z,10.18
2022-10-02T20:50:30.760Z,9.77
2022-10-02T20:53:35.692Z,17.08
2022-10-02T20:56:10.287Z,12.15
2022-10-02T20:58:59.839Z,13.85
2022-10-02T21:01:35.259Z,10.63
2022-10-02T21:04:26.482Z,13.65
2022-10-02T21:08:00.198Z,15.15
2022-10-02T21:11:01.831Z,9.52
2022-10-02T21:14:09.190Z,10.60
2022-10-02T21:17:27.279Z,10.15
2022-10-02T21:23:07.573Z,9.20
2022-10-02T21:26:05.881Z,11.52
2022-10-02T21:29:10.251Z,9.48
2022-10-02T21:31:54.428Z,13.82
2022-10-02T21:34:34.146Z,11.52
2022-10-02T21:37:12.379Z,11.13
2022-10-02T21:40:24.023Z,10.65
2022-10-02T21:43:25.804Z,14.73
2022-10-02T21:46:21.350Z,13.00
2022-10-02T21:49:20.182Z,12.93
2022-10-02T21:52:12.806Z,9.93
2022-10-02T21:55:17.628Z,9.93
2022-10-02T21:58:23.409Z,8.90
2022-10-02T22:01:51.749Z,11.70
2022-10-02T22:04:55.439Z,9.45
2022-10-02T22:07:29.433Z,10.60
2022-10-02T22:10:04.415Z,8.80
2022-10-02T22:12:43.594Z,13.63
2022-10-02T22:15:16.532Z,10.38
2022-10-02T22:17:57.037Z,11.20
2022-10-02T22:20:40.194Z,8.73
2022-10-02T22:23:21.372Z,10.38
2022-10-02T22:26:00.882Z,10.77
2022-10-02T22:28:38.913Z,13.45
2022-10-02T22:31:33.551Z,13.75
2022-10-02T22:34:18.153Z,10.95
2022-10-02T22:37:15.183Z,6.72
2022-10-02T22:39:47.098Z,10.27
2022-10-02T22:42:20.031Z,11.50
2022-10-02T22:44:52.830Z,9.57
2022-10-02T22:47:29.659Z,15.07
2022-10-02T22:50:03.204Z,9.68
2022-10-02T22:52:34.595Z,7.93
2022-10-02T22:55:06.437Z,10.15
2022-10-02T22:57:39.791Z,13.00
2022-10-02T23:00:16.268Z,12.07
2022-10-02T23:02:48.893Z,11.65
2022-10-02T23:05:25.601Z,10.68
2022-10-02T23:07:56.711Z,11.52
2022-10-02T23:10:29.225Z,11.98
2022-10-02T23:13:05.249Z,12.60
2022-10-02T23:15:39.924Z,14.80
2022-10-02T23:18:19.152Z,10.23
2022-10-02T23:20:55.139Z,11.95
2022-10-02T23:23:25.819Z,14.00
2022-10-02T23:25:59.498Z,13.10
2022-10-02T23:28:30.310Z,12.43
2022-10-02T23:31:09.951Z,7.15
2022-10-02T23:36:22.335Z,9.13
2022-10-02T23:38:56.010Z,11.27
2022-10-02T23:41:25.106Z,9.27
2022-10-02T23:44:02.525Z,14.98
2022-10-02T23:46:36.765Z,9.85
2022-10-02T23:49:03.655Z,8.30
2022-10-02T23:51:46.571Z,9.65
2022-10-02T23:54:32.642Z,7.80
2022-10-02T23:57:16.551Z,11.25
